RYR798V EDDG-LEPA
Flight info
| Callsign | RYR798V |
|---|---|
| Flight time | 2h 3m |
| Altitude | 35000 |
| Route | DOMEG3Y DOMEG Z841 GMH Q603 TESGA L603 BOMBI/N0453F380 DCT GIGET DCT ABUKA DCT KRH DCT NATOR/N0446F370 DCT LUTIX DCT BENOT DCT NEMOS DCT GEVEA DCT INCUS DCT BALSI DCT RETNO DCT TUPOX DCT MTG DCT DIVKO DCT VATIR N852 VERSO L129 LUNIK |
| Aircraft | A320/M-SDE3FGHIRWY/LB1 |
Departure
| Time | 2026-04-20 22:31 |
|---|---|
| Airport | Münster Osnabrück Airport (EDDG) |
Arrival
| Time | 2026-04-21 00:34 |
|---|---|
| Airport | Palma de Mallorca Airport (LEPA) |
| Time | Latitude | Longitude | Altitude | Speed | Heading |
|---|---|---|---|---|---|
| 2026-04-20 22:02 | 52.13127 | 7.69205 | 167 ft | 0 kts | 197° |
| 2026-04-20 22:23 | 52.13132 | 7.69207 | 167 ft | 2 kts | 197° |
| 2026-04-20 22:23 | 52.13147 | 7.69214 | 167 ft | 2 kts | 197° |
| 2026-04-20 22:23 | 52.13161 | 7.69221 | 167 ft | 2 kts | 197° |
| 2026-04-20 22:24 | 52.13176 | 7.69228 | 167 ft | 2 kts | 197° |
| 2026-04-20 22:24 | 52.13190 | 7.69236 | 167 ft | 2 kts | 207° |
| 2026-04-20 22:24 | 52.13203 | 7.69249 | 167 ft | 2 kts | 222° |
| 2026-04-20 22:24 | 52.13213 | 7.69268 | 167 ft | 2 kts | 238° |
| 2026-04-20 22:25 | 52.13219 | 7.69285 | 167 ft | 0 kts | 250° |
| 2026-04-20 22:25 | 52.13221 | 7.69295 | 167 ft | 0 kts | 252° |
| 2026-04-20 22:27 | 52.13200 | 7.69197 | 167 ft | 11 kts | 251° |
| 2026-04-20 22:27 | 52.13172 | 7.69060 | 167 ft | 13 kts | 251° |
| 2026-04-20 22:27 | 52.13139 | 7.68906 | 167 ft | 15 kts | 252° |
| 2026-04-20 22:27 | 52.13105 | 7.68730 | 166 ft | 17 kts | 255° |
| 2026-04-20 22:28 | 52.13102 | 7.68526 | 166 ft | 18 kts | 275° |
| 2026-04-20 22:28 | 52.13143 | 7.68387 | 166 ft | 14 kts | 335° |
| 2026-04-20 22:28 | 52.13232 | 7.68314 | 166 ft | 14 kts | 300° |
| 2026-04-20 22:28 | 52.13218 | 7.68146 | 165 ft | 18 kts | 251° |
| 2026-04-20 22:29 | 52.13164 | 7.67890 | 165 ft | 26 kts | 251° |
| 2026-04-20 22:29 | 52.13103 | 7.67598 | 164 ft | 28 kts | 251° |
| 2026-04-20 22:29 | 52.13039 | 7.67297 | 163 ft | 19 kts | 251° |
| 2026-04-20 22:29 | 52.13041 | 7.67133 | 163 ft | 12 kts | 304° |
| 2026-04-20 22:30 | 52.13110 | 7.67049 | 163 ft | 13 kts | 342° |
| 2026-04-20 22:30 | 52.13180 | 7.67093 | 163 ft | 9 kts | 66° |
| 2026-04-20 22:30 | 52.13191 | 7.67195 | 163 ft | 9 kts | 76° |
| 2026-04-20 22:30 | 52.13278 | 7.67613 | 164 ft | 83 kts | 71° |
| 2026-04-20 22:31 | 52.13564 | 7.68972 | 183 ft | 163 kts | 69° |
| 2026-04-20 22:31 | 52.13998 | 7.70823 | 788 ft | 186 kts | 67° |
| 2026-04-20 22:31 | 52.14503 | 7.72868 | 1559 ft | 203 kts | 73° |
| 2026-04-20 22:31 | 52.14398 | 7.75216 | 2315 ft | 225 kts | 114° |
| 2026-04-20 22:32 | 52.13238 | 7.77062 | 3027 ft | 253 kts | 153° |
| 2026-04-20 22:32 | 52.11442 | 7.77374 | 3910 ft | 273 kts | 190° |
| 2026-04-20 22:32 | 52.09755 | 7.75921 | 4876 ft | 282 kts | 217° |
| 2026-04-20 22:32 | 52.08192 | 7.74010 | 5866 ft | 283 kts | 211° |
| 2026-04-20 22:33 | 52.06488 | 7.72399 | 6807 ft | 285 kts | 204° |
| 2026-04-20 22:33 | 52.04676 | 7.71062 | 7721 ft | 287 kts | 199° |
| 2026-04-20 22:33 | 52.02789 | 7.69922 | 8596 ft | 290 kts | 196° |
| 2026-04-20 22:33 | 52.00857 | 7.68928 | 9448 ft | 294 kts | 194° |
| 2026-04-20 22:34 | 51.98883 | 7.68034 | 10302 ft | 298 kts | 192° |
| 2026-04-20 22:34 | 51.96811 | 7.67185 | 10921 ft | 311 kts | 191° |
| 2026-04-20 22:34 | 51.94624 | 7.66362 | 11298 ft | 331 kts | 190° |
| 2026-04-20 22:34 | 51.92339 | 7.65550 | 11844 ft | 342 kts | 189° |
| 2026-04-20 22:35 | 51.89981 | 7.64745 | 12558 ft | 347 kts | 189° |
| 2026-04-20 22:35 | 51.87609 | 7.63960 | 13291 ft | 350 kts | 189° |
| 2026-04-20 22:35 | 51.85201 | 7.63181 | 14009 ft | 353 kts | 189° |
| 2026-04-20 22:35 | 51.82786 | 7.62411 | 14711 ft | 356 kts | 188° |
| 2026-04-20 22:36 | 51.80295 | 7.61625 | 15357 ft | 361 kts | 188° |
| 2026-04-20 22:36 | 51.77819 | 7.60850 | 16008 ft | 364 kts | 188° |
| 2026-04-20 22:36 | 51.75299 | 7.60064 | 16616 ft | 368 kts | 188° |
| 2026-04-20 22:36 | 51.72768 | 7.59290 | 17236 ft | 371 kts | 186° |
| 2026-04-20 22:37 | 51.70204 | 7.59284 | 17805 ft | 368 kts | 166° |
| 2026-04-20 22:37 | 51.67744 | 7.60506 | 18398 ft | 368 kts | 158° |
| 2026-04-20 22:37 | 51.65328 | 7.61897 | 18950 ft | 371 kts | 158° |
| 2026-04-20 22:37 | 51.62865 | 7.63312 | 19549 ft | 373 kts | 158° |
| 2026-04-20 22:38 | 51.60412 | 7.64718 | 20125 ft | 376 kts | 158° |
| 2026-04-20 22:38 | 51.57929 | 7.66139 | 20690 ft | 378 kts | 158° |
| 2026-04-20 22:38 | 51.55444 | 7.67555 | 21253 ft | 380 kts | 158° |
| 2026-04-20 22:38 | 51.52908 | 7.68992 | 21801 ft | 382 kts | 158° |
| 2026-04-20 22:39 | 51.50419 | 7.70402 | 22327 ft | 384 kts | 158° |
| 2026-04-20 22:39 | 51.47855 | 7.71857 | 22853 ft | 386 kts | 158° |
| 2026-04-20 22:39 | 51.45310 | 7.73299 | 23359 ft | 388 kts | 158° |
| 2026-04-20 22:39 | 51.42765 | 7.74740 | 23850 ft | 390 kts | 158° |
| 2026-04-20 22:40 | 51.40180 | 7.76199 | 24337 ft | 391 kts | 158° |
| 2026-04-20 22:40 | 51.37616 | 7.77645 | 24772 ft | 394 kts | 158° |
| 2026-04-20 22:40 | 51.35007 | 7.79114 | 25178 ft | 397 kts | 158° |
| 2026-04-20 22:40 | 51.32401 | 7.80581 | 25542 ft | 400 kts | 158° |
| 2026-04-20 22:41 | 51.29752 | 7.82070 | 25897 ft | 404 kts | 158° |
| 2026-04-20 22:41 | 51.27061 | 7.83581 | 26242 ft | 407 kts | 158° |
| 2026-04-20 22:41 | 51.24369 | 7.85091 | 26598 ft | 410 kts | 158° |
| 2026-04-20 22:41 | 51.21624 | 7.86629 | 26945 ft | 413 kts | 159° |
| 2026-04-20 22:42 | 51.18897 | 7.88159 | 27284 ft | 415 kts | 158° |
| 2026-04-20 22:42 | 51.16234 | 7.90082 | 27607 ft | 416 kts | 149° |
| 2026-04-20 22:42 | 51.13773 | 7.92524 | 27940 ft | 418 kts | 146° |
| 2026-04-20 22:42 | 51.11307 | 7.95043 | 28262 ft | 421 kts | 146° |
| 2026-04-20 22:43 | 51.08826 | 7.97569 | 28547 ft | 424 kts | 146° |
| 2026-04-20 22:43 | 51.06294 | 8.00143 | 28823 ft | 427 kts | 146° |
| 2026-04-20 22:43 | 51.03776 | 8.02699 | 29071 ft | 430 kts | 146° |
| 2026-04-20 22:43 | 51.01218 | 8.05292 | 29315 ft | 432 kts | 146° |
| 2026-04-20 22:44 | 50.98650 | 8.07888 | 29550 ft | 435 kts | 146° |
| 2026-04-20 22:44 | 50.96073 | 8.10491 | 29761 ft | 439 kts | 146° |
| 2026-04-20 22:44 | 50.93490 | 8.13095 | 29978 ft | 442 kts | 146° |
| 2026-04-20 22:44 | 50.90863 | 8.15740 | 30152 ft | 446 kts | 146° |
| 2026-04-20 22:45 | 50.88196 | 8.18422 | 30359 ft | 449 kts | 146° |
| 2026-04-20 22:45 | 50.85536 | 8.21095 | 30543 ft | 452 kts | 146° |
| 2026-04-20 22:45 | 50.82861 | 8.23778 | 30700 ft | 456 kts | 146° |
| 2026-04-20 22:45 | 50.80159 | 8.26484 | 30892 ft | 459 kts | 146° |
| 2026-04-20 22:46 | 50.77394 | 8.29249 | 31104 ft | 461 kts | 147° |
| 2026-04-20 22:46 | 50.74689 | 8.31951 | 31317 ft | 462 kts | 147° |
| 2026-04-20 22:46 | 50.71910 | 8.34723 | 31441 ft | 466 kts | 147° |
| 2026-04-20 22:46 | 50.69144 | 8.37477 | 31529 ft | 471 kts | 147° |
| 2026-04-20 22:47 | 50.66351 | 8.40255 | 31682 ft | 473 kts | 147° |
| 2026-04-20 22:47 | 50.63553 | 8.43035 | 31929 ft | 473 kts | 147° |
| 2026-04-20 22:47 | 50.60767 | 8.45798 | 32140 ft | 473 kts | 147° |
| 2026-04-20 22:47 | 50.57961 | 8.48576 | 32294 ft | 476 kts | 148° |
| 2026-04-20 22:48 | 50.55124 | 8.51382 | 32477 ft | 477 kts | 148° |
| 2026-04-20 22:48 | 50.52284 | 8.54187 | 32708 ft | 477 kts | 148° |
| 2026-04-20 22:48 | 50.49489 | 8.56943 | 32904 ft | 477 kts | 148° |
| 2026-04-20 22:48 | 50.46628 | 8.59751 | 33085 ft | 478 kts | 149° |
| 2026-04-20 22:49 | 50.43637 | 8.62133 | 33295 ft | 476 kts | 160° |
| 2026-04-20 22:49 | 50.40492 | 8.63767 | 33504 ft | 475 kts | 165° |
| 2026-04-20 22:49 | 50.37333 | 8.65245 | 33684 ft | 476 kts | 166° |
| 2026-04-20 22:49 | 50.34234 | 8.66693 | 33893 ft | 476 kts | 166° |
| 2026-04-20 22:50 | 50.31036 | 8.68191 | 34128 ft | 476 kts | 166° |
| 2026-04-20 22:50 | 50.27842 | 8.69686 | 34355 ft | 476 kts | 166° |
| 2026-04-20 22:50 | 50.24656 | 8.71175 | 34581 ft | 476 kts | 166° |
| 2026-04-20 22:50 | 50.21421 | 8.72687 | 34843 ft | 475 kts | 166° |
| 2026-04-20 22:51 | 50.18248 | 8.74166 | 35069 ft | 475 kts | 166° |
| 2026-04-20 22:51 | 50.15046 | 8.75657 | 35133 ft | 476 kts | 166° |
| 2026-04-20 22:51 | 50.08693 | 8.78562 | 35140 ft | 474 kts | 170° |
| 2026-04-20 22:52 | 50.02143 | 8.79273 | 35139 ft | 464 kts | 191° |
| 2026-04-20 22:52 | 49.95754 | 8.77960 | 35137 ft | 462 kts | 192° |
| 2026-04-20 22:53 | 49.89464 | 8.76653 | 35137 ft | 463 kts | 192° |
| 2026-04-20 22:53 | 49.82942 | 8.75305 | 35129 ft | 462 kts | 192° |
| 2026-04-20 22:54 | 49.76507 | 8.73979 | 35136 ft | 462 kts | 193° |
| 2026-04-20 22:54 | 49.70065 | 8.72654 | 35133 ft | 462 kts | 193° |
| 2026-04-20 22:55 | 49.63686 | 8.71363 | 35145 ft | 463 kts | 193° |
| 2026-04-20 22:55 | 49.57264 | 8.70069 | 35141 ft | 463 kts | 193° |
| 2026-04-20 22:56 | 49.50834 | 8.68777 | 35151 ft | 462 kts | 193° |
| 2026-04-20 22:56 | 49.44398 | 8.67485 | 34993 ft | 462 kts | 194° |
| 2026-04-20 22:57 | 49.41217 | 8.66841 | 35280 ft | 461 kts | 194° |
| 2026-04-20 22:57 | 49.37982 | 8.66185 | 35091 ft | 463 kts | 194° |
| 2026-04-20 22:57 | 49.31600 | 8.64896 | 35200 ft | 463 kts | 194° |
| 2026-04-20 22:58 | 49.25137 | 8.63593 | 35181 ft | 464 kts | 194° |
| 2026-04-20 22:58 | 49.18713 | 8.62303 | 35160 ft | 463 kts | 194° |
| 2026-04-20 22:59 | 49.12250 | 8.61009 | 35181 ft | 463 kts | 194° |
| 2026-04-20 22:59 | 49.05830 | 8.59726 | 35143 ft | 462 kts | 194° |
| 2026-04-20 23:00 | 48.99425 | 8.58393 | 35147 ft | 460 kts | 197° |
| 2026-04-20 23:00 | 48.93161 | 8.56430 | 35142 ft | 457 kts | 199° |
| 2026-04-20 23:01 | 48.86941 | 8.54419 | 35145 ft | 456 kts | 200° |
| 2026-04-20 23:01 | 48.80650 | 8.52389 | 35110 ft | 456 kts | 199° |
| 2026-04-20 23:02 | 48.74388 | 8.50372 | 35116 ft | 456 kts | 200° |
| 2026-04-20 23:02 | 48.68133 | 8.48363 | 35105 ft | 456 kts | 199° |
| 2026-04-20 23:03 | 48.61906 | 8.46368 | 35137 ft | 456 kts | 199° |
| 2026-04-20 23:03 | 48.55647 | 8.44368 | 35121 ft | 456 kts | 199° |
| 2026-04-20 23:04 | 48.49424 | 8.42384 | 35131 ft | 457 kts | 199° |
| 2026-04-20 23:04 | 48.43127 | 8.40381 | 35141 ft | 458 kts | 199° |
| 2026-04-20 23:05 | 48.36970 | 8.38428 | 35138 ft | 457 kts | 199° |
| 2026-04-20 23:05 | 48.30677 | 8.36436 | 35138 ft | 458 kts | 199° |
| 2026-04-20 23:06 | 48.24410 | 8.34458 | 35134 ft | 458 kts | 198° |
| 2026-04-20 23:06 | 48.18165 | 8.32270 | 35145 ft | 453 kts | 206° |
| 2026-04-20 23:07 | 48.12631 | 8.27909 | 35153 ft | 441 kts | 219° |
| 2026-04-20 23:07 | 48.07433 | 8.22885 | 35150 ft | 441 kts | 219° |
| 2026-04-20 23:08 | 48.02253 | 8.17901 | 35147 ft | 441 kts | 219° |
| 2026-04-20 23:08 | 47.97067 | 8.12922 | 35139 ft | 440 kts | 219° |
| 2026-04-20 23:09 | 47.91859 | 8.07933 | 35141 ft | 440 kts | 219° |
| 2026-04-20 23:09 | 47.86709 | 8.03012 | 35143 ft | 439 kts | 219° |
| 2026-04-20 23:10 | 47.81517 | 7.98062 | 35134 ft | 439 kts | 219° |
| 2026-04-20 23:10 | 47.76330 | 7.93128 | 35119 ft | 439 kts | 219° |
| 2026-04-20 23:11 | 47.71175 | 7.88237 | 35125 ft | 439 kts | 219° |
| 2026-04-20 23:11 | 47.65996 | 7.83334 | 35126 ft | 439 kts | 219° |
| 2026-04-20 23:12 | 47.60810 | 7.78436 | 35121 ft | 439 kts | 219° |
| 2026-04-20 23:12 | 47.55596 | 7.73524 | 35137 ft | 440 kts | 219° |
| 2026-04-20 23:13 | 47.50384 | 7.68626 | 35137 ft | 440 kts | 219° |
| 2026-04-20 23:13 | 47.45190 | 7.63756 | 35155 ft | 440 kts | 219° |
| 2026-04-20 23:14 | 47.39974 | 7.58877 | 35167 ft | 440 kts | 219° |
| 2026-04-20 23:14 | 47.34777 | 7.54027 | 35349 ft | 440 kts | 219° |
| 2026-04-20 23:15 | 47.32175 | 7.51603 | 35545 ft | 440 kts | 219° |
| 2026-04-20 23:15 | 47.29546 | 7.49157 | 35735 ft | 440 kts | 219° |
| 2026-04-20 23:15 | 47.26942 | 7.46738 | 35949 ft | 439 kts | 219° |
| 2026-04-20 23:15 | 47.24336 | 7.44319 | 36107 ft | 439 kts | 219° |
| 2026-04-20 23:16 | 47.21747 | 7.41919 | 36309 ft | 438 kts | 219° |
| 2026-04-20 23:16 | 47.19163 | 7.39522 | 36501 ft | 438 kts | 220° |
| 2026-04-20 23:16 | 47.16737 | 7.36852 | 36672 ft | 431 kts | 229° |
| 2026-04-20 23:16 | 47.14658 | 7.33650 | 36855 ft | 425 kts | 237° |
| 2026-04-20 23:17 | 47.12808 | 7.30242 | 37029 ft | 425 kts | 237° |
| 2026-04-20 23:17 | 47.10936 | 7.26784 | 37091 ft | 425 kts | 237° |
| 2026-04-20 23:17 | 47.07232 | 7.19964 | 37117 ft | 424 kts | 237° |
| 2026-04-20 23:18 | 47.03500 | 7.13113 | 37122 ft | 425 kts | 237° |
| 2026-04-20 23:18 | 46.99743 | 7.06234 | 37101 ft | 434 kts | 237° |
| 2026-04-20 23:19 | 46.95896 | 6.99210 | 37100 ft | 437 kts | 237° |
| 2026-04-20 23:19 | 46.92023 | 6.92231 | 37107 ft | 439 kts | 234° |
| 2026-04-20 23:20 | 46.87410 | 6.86128 | 37097 ft | 446 kts | 225° |
| 2026-04-20 23:20 | 46.82549 | 6.80343 | 37095 ft | 445 kts | 226° |
| 2026-04-20 23:21 | 46.77701 | 6.74575 | 37100 ft | 445 kts | 225° |
| 2026-04-20 23:21 | 46.72846 | 6.68814 | 37090 ft | 445 kts | 225° |
| 2026-04-20 23:22 | 46.68001 | 6.63080 | 37086 ft | 444 kts | 225° |
| 2026-04-20 23:22 | 46.63187 | 6.57395 | 37094 ft | 443 kts | 225° |
| 2026-04-20 23:23 | 46.58367 | 6.51717 | 37091 ft | 442 kts | 225° |
| 2026-04-20 23:23 | 46.53566 | 6.46073 | 37084 ft | 442 kts | 225° |
| 2026-04-20 23:24 | 46.48712 | 6.40382 | 37079 ft | 443 kts | 225° |
| 2026-04-20 23:24 | 46.43958 | 6.34820 | 37097 ft | 442 kts | 225° |
| 2026-04-20 23:25 | 46.39079 | 6.29126 | 37086 ft | 442 kts | 225° |
| 2026-04-20 23:25 | 46.34273 | 6.23530 | 37072 ft | 441 kts | 225° |
| 2026-04-20 23:26 | 46.29438 | 6.17916 | 37210 ft | 440 kts | 224° |
| 2026-04-20 23:26 | 46.26914 | 6.15409 | 37400 ft | 446 kts | 216° |
| 2026-04-20 23:26 | 46.24066 | 6.13479 | 37607 ft | 453 kts | 206° |
| 2026-04-20 23:27 | 46.20982 | 6.12248 | 37750 ft | 462 kts | 197° |
| 2026-04-20 23:27 | 46.17775 | 6.11507 | 37912 ft | 463 kts | 195° |
| 2026-04-20 23:27 | 46.14587 | 6.10808 | 38020 ft | 462 kts | 195° |
| 2026-04-20 23:27 | 46.11401 | 6.10105 | 38146 ft | 463 kts | 195° |
| 2026-04-20 23:28 | 46.08198 | 6.09396 | 38275 ft | 462 kts | 195° |
| 2026-04-20 23:28 | 46.04981 | 6.08684 | 38440 ft | 461 kts | 195° |
| 2026-04-20 23:28 | 45.98635 | 6.07279 | 38663 ft | 461 kts | 195° |
| 2026-04-20 23:29 | 45.95425 | 6.06571 | 38813 ft | 460 kts | 195° |
| 2026-04-20 23:29 | 45.92263 | 6.05872 | 38889 ft | 461 kts | 195° |
| 2026-04-20 23:29 | 45.85883 | 6.04467 | 39065 ft | 461 kts | 195° |
| 2026-04-20 23:30 | 45.79522 | 6.03061 | 39113 ft | 460 kts | 195° |
| 2026-04-20 23:30 | 45.73158 | 6.01656 | 39119 ft | 459 kts | 195° |
| 2026-04-20 23:31 | 45.66811 | 6.00257 | 39106 ft | 460 kts | 195° |
| 2026-04-20 23:31 | 45.60461 | 5.98862 | 39116 ft | 460 kts | 195° |
| 2026-04-20 23:32 | 45.54071 | 5.97461 | 39114 ft | 460 kts | 195° |
| 2026-04-20 23:32 | 45.47708 | 5.96031 | 39117 ft | 458 kts | 197° |
| 2026-04-20 23:33 | 45.41439 | 5.94102 | 39127 ft | 456 kts | 199° |
| 2026-04-20 23:33 | 45.35223 | 5.92162 | 39139 ft | 456 kts | 199° |
| 2026-04-20 23:34 | 45.28984 | 5.90218 | 39150 ft | 455 kts | 199° |
| 2026-04-20 23:34 | 45.22733 | 5.88274 | 39153 ft | 455 kts | 199° |
| 2026-04-20 23:35 | 45.13403 | 5.85381 | 39144 ft | 455 kts | 199° |
| 2026-04-20 23:36 | 45.07181 | 5.83457 | 39158 ft | 455 kts | 199° |
| 2026-04-20 23:36 | 45.00963 | 5.81539 | 39161 ft | 455 kts | 199° |
| 2026-04-20 23:37 | 44.94761 | 5.79629 | 39163 ft | 455 kts | 199° |
| 2026-04-20 23:37 | 44.88576 | 5.77730 | 39165 ft | 455 kts | 199° |
| 2026-04-20 23:38 | 44.82303 | 5.75807 | 39156 ft | 455 kts | 199° |
| 2026-04-20 23:38 | 44.76106 | 5.73912 | 39151 ft | 454 kts | 199° |
| 2026-04-20 23:39 | 44.69901 | 5.72018 | 39152 ft | 454 kts | 199° |
| 2026-04-20 23:39 | 44.63681 | 5.70124 | 39142 ft | 454 kts | 199° |
| 2026-04-20 23:40 | 44.57501 | 5.68246 | 39135 ft | 454 kts | 199° |
| 2026-04-20 23:40 | 44.51260 | 5.66354 | 39145 ft | 454 kts | 199° |
| 2026-04-20 23:41 | 44.45065 | 5.64480 | 39136 ft | 454 kts | 199° |
| 2026-04-20 23:41 | 44.38828 | 5.62536 | 39141 ft | 452 kts | 202° |
| 2026-04-20 23:42 | 44.32951 | 5.59574 | 39142 ft | 447 kts | 208° |
| 2026-04-20 23:42 | 44.27115 | 5.56377 | 39139 ft | 447 kts | 208° |
| 2026-04-20 23:43 | 44.21275 | 5.53186 | 39129 ft | 447 kts | 208° |
| 2026-04-20 23:43 | 44.15420 | 5.49993 | 39132 ft | 447 kts | 208° |
| 2026-04-20 23:44 | 44.09588 | 5.46818 | 39127 ft | 447 kts | 208° |
| 2026-04-20 23:44 | 44.03766 | 5.43656 | 39127 ft | 446 kts | 208° |
| 2026-04-20 23:45 | 43.97876 | 5.40463 | 39117 ft | 446 kts | 208° |
| 2026-04-20 23:45 | 43.92066 | 5.37316 | 39110 ft | 447 kts | 208° |
| 2026-04-20 23:46 | 43.86344 | 5.34222 | 39100 ft | 446 kts | 207° |
| 2026-04-20 23:46 | 43.80494 | 5.31067 | 39092 ft | 447 kts | 207° |
| 2026-04-20 23:47 | 43.74591 | 5.27889 | 39087 ft | 447 kts | 207° |
| 2026-04-20 23:47 | 43.68750 | 5.24752 | 39098 ft | 448 kts | 207° |
| 2026-04-20 23:48 | 43.62888 | 5.21610 | 39103 ft | 448 kts | 207° |
| 2026-04-20 23:48 | 43.57016 | 5.18470 | 39109 ft | 448 kts | 207° |
| 2026-04-20 23:49 | 43.51170 | 5.15350 | 39113 ft | 449 kts | 207° |
| 2026-04-20 23:49 | 43.45284 | 5.12215 | 39107 ft | 449 kts | 207° |
| 2026-04-20 23:50 | 43.39454 | 5.09019 | 39112 ft | 446 kts | 212° |
| 2026-04-20 23:50 | 43.34214 | 5.04512 | 39108 ft | 439 kts | 220° |
| 2026-04-20 23:51 | 43.29116 | 4.99711 | 39117 ft | 439 kts | 220° |
| 2026-04-20 23:51 | 43.24039 | 4.94939 | 39114 ft | 438 kts | 220° |
| 2026-04-20 23:52 | 43.18954 | 4.90169 | 39121 ft | 438 kts | 220° |
| 2026-04-20 23:52 | 43.13886 | 4.85423 | 39119 ft | 438 kts | 220° |
| 2026-04-20 23:53 | 43.08804 | 4.80673 | 39127 ft | 438 kts | 220° |
| 2026-04-20 23:53 | 43.03596 | 4.76158 | 39121 ft | 442 kts | 215° |
| 2026-04-20 23:54 | 42.98193 | 4.72064 | 39124 ft | 442 kts | 215° |
| 2026-04-20 23:54 | 42.92746 | 4.67934 | 39120 ft | 442 kts | 215° |
| 2026-04-20 23:55 | 42.87326 | 4.63836 | 39122 ft | 442 kts | 215° |
| 2026-04-20 23:55 | 42.81895 | 4.59737 | 39119 ft | 442 kts | 215° |
| 2026-04-20 23:56 | 42.76432 | 4.55623 | 39122 ft | 441 kts | 214° |
| 2026-04-20 23:56 | 42.71006 | 4.51544 | 39116 ft | 441 kts | 215° |
| 2026-04-20 23:57 | 42.65570 | 4.47468 | 39122 ft | 442 kts | 214° |
| 2026-04-20 23:57 | 42.60107 | 4.43378 | 39119 ft | 442 kts | 215° |
| 2026-04-20 23:58 | 42.54394 | 4.39998 | 39116 ft | 448 kts | 209° |
| 2026-04-20 23:58 | 42.49002 | 4.35791 | 39120 ft | 440 kts | 218° |
| 2026-04-20 23:59 | 42.43739 | 4.31438 | 39124 ft | 442 kts | 216° |
| 2026-04-20 23:59 | 42.38297 | 4.27219 | 39116 ft | 443 kts | 214° |
| 2026-04-21 00:00 | 42.32858 | 4.23130 | 39119 ft | 444 kts | 214° |
| 2026-04-21 00:00 | 42.27364 | 4.19049 | 39109 ft | 444 kts | 214° |
| 2026-04-21 00:01 | 42.21896 | 4.15007 | 39109 ft | 445 kts | 214° |
| 2026-04-21 00:01 | 42.16389 | 4.10949 | 39112 ft | 445 kts | 214° |
| 2026-04-21 00:02 | 42.10921 | 4.06929 | 39108 ft | 445 kts | 214° |
| 2026-04-21 00:02 | 42.05402 | 4.02881 | 39105 ft | 445 kts | 214° |
| 2026-04-21 00:03 | 41.99895 | 3.98849 | 39102 ft | 445 kts | 214° |
| 2026-04-21 00:03 | 41.94402 | 3.94870 | 39108 ft | 447 kts | 211° |
| 2026-04-21 00:04 | 41.88320 | 3.92409 | 39124 ft | 460 kts | 195° |
| 2026-04-21 00:04 | 41.81958 | 3.90950 | 39114 ft | 459 kts | 195° |
| 2026-04-21 00:05 | 41.75604 | 3.89487 | 39128 ft | 457 kts | 195° |
| 2026-04-21 00:05 | 41.69208 | 3.88014 | 39131 ft | 457 kts | 195° |
| 2026-04-21 00:06 | 41.62868 | 3.86557 | 39136 ft | 457 kts | 195° |
| 2026-04-21 00:06 | 41.56524 | 3.85102 | 39142 ft | 451 kts | 195° |
| 2026-04-21 00:07 | 41.50294 | 3.83673 | 39152 ft | 444 kts | 195° |
| 2026-04-21 00:07 | 41.44161 | 3.82268 | 38851 ft | 443 kts | 195° |
| 2026-04-21 00:07 | 41.41089 | 3.81565 | 38611 ft | 443 kts | 195° |
| 2026-04-21 00:08 | 41.37985 | 3.80855 | 38368 ft | 444 kts | 195° |
| 2026-04-21 00:08 | 41.34928 | 3.80157 | 38131 ft | 444 kts | 195° |
| 2026-04-21 00:08 | 41.31849 | 3.79454 | 37881 ft | 445 kts | 195° |
| 2026-04-21 00:08 | 41.28728 | 3.78744 | 37630 ft | 445 kts | 194° |
| 2026-04-21 00:09 | 41.25629 | 3.78039 | 37375 ft | 445 kts | 195° |
| 2026-04-21 00:09 | 41.22584 | 3.77346 | 37120 ft | 445 kts | 195° |
| 2026-04-21 00:09 | 41.19473 | 3.76640 | 36726 ft | 442 kts | 194° |
| 2026-04-21 00:09 | 41.16444 | 3.75911 | 36151 ft | 440 kts | 198° |
| 2026-04-21 00:10 | 41.13466 | 3.74745 | 35441 ft | 438 kts | 205° |
| 2026-04-21 00:10 | 41.10584 | 3.73261 | 34723 ft | 441 kts | 206° |
| 2026-04-21 00:10 | 41.07707 | 3.71774 | 33996 ft | 443 kts | 206° |
| 2026-04-21 00:10 | 41.04785 | 3.70268 | 33294 ft | 443 kts | 206° |
| 2026-04-21 00:11 | 41.01877 | 3.68770 | 32686 ft | 441 kts | 206° |
| 2026-04-21 00:11 | 40.99007 | 3.67293 | 32101 ft | 439 kts | 206° |
| 2026-04-21 00:11 | 40.96115 | 3.65803 | 31556 ft | 435 kts | 206° |
| 2026-04-21 00:11 | 40.93273 | 3.64343 | 31030 ft | 432 kts | 206° |
| 2026-04-21 00:12 | 40.90446 | 3.62902 | 30496 ft | 429 kts | 206° |
| 2026-04-21 00:12 | 40.87660 | 3.61483 | 29963 ft | 425 kts | 206° |
| 2026-04-21 00:12 | 40.84864 | 3.60055 | 29426 ft | 422 kts | 206° |
| 2026-04-21 00:12 | 40.82117 | 3.58650 | 28895 ft | 418 kts | 206° |
| 2026-04-21 00:13 | 40.79386 | 3.57254 | 28362 ft | 415 kts | 206° |
| 2026-04-21 00:13 | 40.76687 | 3.55875 | 27837 ft | 411 kts | 206° |
| 2026-04-21 00:13 | 40.73980 | 3.54493 | 27304 ft | 408 kts | 206° |
| 2026-04-21 00:13 | 40.71316 | 3.53134 | 26778 ft | 405 kts | 206° |
| 2026-04-21 00:14 | 40.68638 | 3.51769 | 26230 ft | 402 kts | 206° |
| 2026-04-21 00:14 | 40.66002 | 3.50427 | 25697 ft | 399 kts | 206° |
| 2026-04-21 00:14 | 40.63389 | 3.49098 | 25175 ft | 396 kts | 205° |
| 2026-04-21 00:14 | 40.60802 | 3.47783 | 24654 ft | 394 kts | 205° |
| 2026-04-21 00:15 | 40.58211 | 3.46468 | 24124 ft | 391 kts | 206° |
| 2026-04-21 00:15 | 40.55662 | 3.45174 | 23599 ft | 388 kts | 205° |
| 2026-04-21 00:15 | 40.53130 | 3.43891 | 23084 ft | 385 kts | 205° |
| 2026-04-21 00:15 | 40.50604 | 3.42612 | 22559 ft | 383 kts | 205° |
| 2026-04-21 00:16 | 40.48096 | 3.41342 | 22036 ft | 380 kts | 205° |
| 2026-04-21 00:16 | 40.45594 | 3.40083 | 21509 ft | 379 kts | 204° |
| 2026-04-21 00:16 | 40.43001 | 3.39355 | 20981 ft | 383 kts | 185° |
| 2026-04-21 00:16 | 40.40293 | 3.39439 | 20446 ft | 383 kts | 181° |
| 2026-04-21 00:17 | 40.37596 | 3.39600 | 19907 ft | 381 kts | 181° |
| 2026-04-21 00:17 | 40.34917 | 3.39757 | 19376 ft | 379 kts | 181° |
| 2026-04-21 00:17 | 40.32280 | 3.39909 | 18850 ft | 377 kts | 181° |
| 2026-04-21 00:17 | 40.29631 | 3.40060 | 18325 ft | 374 kts | 181° |
| 2026-04-21 00:18 | 40.27007 | 3.40210 | 17812 ft | 372 kts | 181° |
| 2026-04-21 00:18 | 40.24394 | 3.40357 | 17288 ft | 369 kts | 181° |
| 2026-04-21 00:18 | 40.21811 | 3.40505 | 16783 ft | 361 kts | 181° |
| 2026-04-21 00:18 | 40.19318 | 3.40647 | 16292 ft | 353 kts | 181° |
| 2026-04-21 00:19 | 40.16829 | 3.40787 | 15788 ft | 352 kts | 181° |
| 2026-04-21 00:19 | 40.14375 | 3.40925 | 15298 ft | 350 kts | 181° |
| 2026-04-21 00:19 | 40.11915 | 3.41064 | 14806 ft | 348 kts | 180° |
| 2026-04-21 00:19 | 40.09493 | 3.41200 | 14448 ft | 342 kts | 180° |
| 2026-04-21 00:20 | 40.07109 | 3.41336 | 14218 ft | 332 kts | 180° |
| 2026-04-21 00:20 | 40.04828 | 3.41465 | 14047 ft | 321 kts | 180° |
| 2026-04-21 00:20 | 40.02573 | 3.41593 | 13783 ft | 315 kts | 180° |
| 2026-04-21 00:20 | 40.00378 | 3.41715 | 13437 ft | 311 kts | 180° |
| 2026-04-21 00:21 | 39.98203 | 3.41838 | 13061 ft | 309 kts | 180° |
| 2026-04-21 00:21 | 39.96042 | 3.41958 | 12667 ft | 307 kts | 180° |
| 2026-04-21 00:21 | 39.93892 | 3.42079 | 12271 ft | 306 kts | 180° |
| 2026-04-21 00:21 | 39.91730 | 3.42200 | 11881 ft | 305 kts | 180° |
| 2026-04-21 00:22 | 39.89582 | 3.42321 | 11499 ft | 303 kts | 180° |
| 2026-04-21 00:22 | 39.87456 | 3.42440 | 11111 ft | 302 kts | 180° |
| 2026-04-21 00:22 | 39.85366 | 3.42557 | 10731 ft | 300 kts | 180° |
| 2026-04-21 00:22 | 39.83233 | 3.42677 | 10359 ft | 298 kts | 179° |
| 2026-04-21 00:23 | 39.81145 | 3.42794 | 10038 ft | 295 kts | 179° |
| 2026-04-21 00:23 | 39.79087 | 3.42909 | 9639 ft | 295 kts | 179° |
| 2026-04-21 00:23 | 39.77008 | 3.43026 | 9236 ft | 294 kts | 179° |
| 2026-04-21 00:23 | 39.74948 | 3.43141 | 8859 ft | 293 kts | 179° |
| 2026-04-21 00:24 | 39.72910 | 3.42988 | 8475 ft | 290 kts | 198° |
| 2026-04-21 00:24 | 39.71183 | 3.41711 | 8099 ft | 284 kts | 227° |
| 2026-04-21 00:24 | 39.70147 | 3.39545 | 7722 ft | 280 kts | 255° |
| 2026-04-21 00:24 | 39.69966 | 3.37014 | 7301 ft | 280 kts | 273° |
| 2026-04-21 00:25 | 39.70060 | 3.34525 | 7056 ft | 274 kts | 272° |
| 2026-04-21 00:25 | 39.70143 | 3.32050 | 6686 ft | 274 kts | 272° |
| 2026-04-21 00:25 | 39.70223 | 3.29555 | 6341 ft | 272 kts | 272° |
| 2026-04-21 00:25 | 39.70301 | 3.27096 | 6015 ft | 271 kts | 272° |
| 2026-04-21 00:26 | 39.70377 | 3.24657 | 5681 ft | 269 kts | 272° |
| 2026-04-21 00:26 | 39.70452 | 3.22210 | 5353 ft | 268 kts | 272° |
| 2026-04-21 00:26 | 39.70526 | 3.19806 | 5032 ft | 266 kts | 272° |
| 2026-04-21 00:26 | 39.70600 | 3.17398 | 4716 ft | 265 kts | 272° |
| 2026-04-21 00:27 | 39.70673 | 3.15000 | 4397 ft | 264 kts | 272° |
| 2026-04-21 00:27 | 39.70744 | 3.12616 | 4149 ft | 259 kts | 271° |
| 2026-04-21 00:27 | 39.70806 | 3.10303 | 4006 ft | 251 kts | 269° |
| 2026-04-21 00:27 | 39.70460 | 3.08107 | 3861 ft | 243 kts | 247° |
| 2026-04-21 00:28 | 39.69707 | 3.06189 | 3745 ft | 236 kts | 240° |
| 2026-04-21 00:28 | 39.68880 | 3.04352 | 3632 ft | 228 kts | 239° |
| 2026-04-21 00:28 | 39.68076 | 3.02620 | 3528 ft | 221 kts | 238° |
| 2026-04-21 00:28 | 39.67277 | 3.00923 | 3422 ft | 215 kts | 238° |
| 2026-04-21 00:29 | 39.66497 | 2.99276 | 3325 ft | 208 kts | 238° |
| 2026-04-21 00:29 | 39.65745 | 2.97694 | 3224 ft | 203 kts | 238° |
| 2026-04-21 00:29 | 39.65010 | 2.96146 | 3139 ft | 197 kts | 238° |
| 2026-04-21 00:29 | 39.64303 | 2.94657 | 3052 ft | 191 kts | 238° |
| 2026-04-21 00:30 | 39.63612 | 2.93201 | 2983 ft | 183 kts | 238° |
| 2026-04-21 00:30 | 39.62957 | 2.91820 | 2792 ft | 174 kts | 238° |
| 2026-04-21 00:30 | 39.62326 | 2.90490 | 2579 ft | 168 kts | 238° |
| 2026-04-21 00:30 | 39.61719 | 2.89210 | 2352 ft | 160 kts | 238° |
| 2026-04-21 00:31 | 39.61151 | 2.88013 | 2132 ft | 153 kts | 238° |
| 2026-04-21 00:31 | 39.60596 | 2.86841 | 1916 ft | 147 kts | 238° |
| 2026-04-21 00:31 | 39.60064 | 2.85720 | 1721 ft | 146 kts | 238° |
| 2026-04-21 00:31 | 39.59528 | 2.84589 | 1540 ft | 145 kts | 238° |
| 2026-04-21 00:32 | 39.59000 | 2.83461 | 1359 ft | 144 kts | 238° |
| 2026-04-21 00:32 | 39.58476 | 2.82359 | 1181 ft | 142 kts | 238° |
| 2026-04-21 00:32 | 39.57945 | 2.81278 | 1004 ft | 140 kts | 237° |
| 2026-04-21 00:32 | 39.57431 | 2.80191 | 825 ft | 139 kts | 239° |
| 2026-04-21 00:33 | 39.56933 | 2.79114 | 631 ft | 138 kts | 238° |
| 2026-04-21 00:33 | 39.56426 | 2.78053 | 408 ft | 137 kts | 238° |
| 2026-04-21 00:33 | 39.55938 | 2.77012 | 221 ft | 133 kts | 238° |
| 2026-04-21 00:33 | 39.55440 | 2.75962 | 114 ft | 135 kts | 238° |
| 2026-04-21 00:34 | 39.54947 | 2.74946 | 30 ft | 123 kts | 243° |
| 2026-04-21 00:34 | 39.54574 | 2.74121 | 36 ft | 78 kts | 238° |
| 2026-04-21 00:34 | 39.54430 | 2.73802 | 35 ft | 9 kts | 264° |
| 2026-04-21 00:34 | 39.54461 | 2.73745 | 35 ft | 11 kts | 324° |
| 2026-04-21 00:35 | 39.54544 | 2.73687 | 35 ft | 13 kts | 354° |
| 2026-04-21 00:35 | 39.54617 | 2.73764 | 35 ft | 14 kts | 59° |
| 2026-04-21 00:35 | 39.54674 | 2.73886 | 35 ft | 16 kts | 58° |
| 2026-04-21 00:35 | 39.54771 | 2.73923 | 35 ft | 10 kts | 22° |
| 2026-04-21 00:36 | 39.54814 | 2.73984 | 35 ft | 9 kts | 36° |
| 2026-04-21 00:36 | 39.54886 | 2.73971 | 35 ft | 12 kts | 331° |
| 2026-04-21 00:36 | 39.54969 | 2.73905 | 35 ft | 14 kts | 328° |
| 2026-04-21 00:36 | 39.55066 | 2.73827 | 33 ft | 17 kts | 329° |
| 2026-04-21 00:37 | 39.55170 | 2.73741 | 32 ft | 15 kts | 304° |
| 2026-04-21 00:37 | 39.55136 | 2.73603 | 31 ft | 17 kts | 238° |
| 2026-04-21 00:37 | 39.55095 | 2.73530 | 31 ft | 6 kts | 200° |
| 2026-04-21 00:37 | 39.55053 | 2.73537 | 31 ft | 2 kts | 166° |
| 2026-04-21 00:38 | 39.55043 | 2.73541 | 31 ft | 0 kts | 165° |